Time;durP1;ratioP1;P1;durP2;ratioP2;P2;SDS_P1;SDS_P2;PMS_P1;PMS_P2;Temp;Humidity;BMP_temperature;BMP_pressure;BME280_temperature;BME280_humidity;BME280_pressure;Samples;Min_cycle;Max_cycle;Signal;HPM_P1;HPM_P2
2021/06/03 00:01:19;;;;;;;44.50;41.05;;;;;;;8.83;100.00;101454.81;5028698;28;20046;-88
2021/06/03 00:03:47;;;;;;;41.45;38.38;;;;;;;8.78;100.00;101446.59;5030709;28;20044;-88
2021/06/03 00:06:13;;;;;;;40.95;38.10;;;;;;;8.89;100.00;101445.34;5027999;28;20045;-88
2021/06/03 00:08:42;;;;;;;41.70;38.60;;;;;;;8.77;100.00;101439.63;5035981;28;20446;-89
2021/06/03 00:11:11;;;;;;;43.03;39.92;;;;;;;8.79;100.00;101445.59;5031567;28;20045;-89
2021/06/03 00:13:39;;;;;;;40.60;37.40;;;;;;;8.91;100.00;101440.72;5035931;28;20518;-89
2021/06/03 00:16:07;;;;;;;41.13;37.83;;;;;;;8.92;100.00;101443.16;5032743;28;20434;-88
2021/06/03 00:18:33;;;;;;;41.15;37.83;;;;;;;9.01;100.00;101448.41;5028011;28;20046;-88
2021/06/03 00:21:01;;;;;;;43.10;39.88;;;;;;;8.67;100.00;101453.13;5036363;28;20104;-89
2021/06/03 00:23:28;;;;;;;56.45;51.90;;;;;;;8.86;100.00;101453.66;5035784;28;20045;-89
2021/06/03 00:25:54;;;;;;;53.63;49.42;;;;;;;8.92;100.00;101463.53;5035509;28;20060;-88
2021/06/03 00:28:20;;;;;;;49.72;45.42;;;;;;;8.80;100.00;101455.19;5035444;28;20491;-87
2021/06/03 00:30:47;;;;;;;55.60;51.00;;;;;;;8.72;100.00;101447.31;5035352;28;20549;-89
2021/06/03 00:33:14;;;;;;;53.90;49.50;;;;;;;8.75;100.00;101454.09;5034864;28;20120;-89
2021/06/03 00:35:41;;;;;;;51.65;47.35;;;;;;;8.88;100.00;101456.97;5036238;28;20057;-87
2021/06/03 00:38:08;;;;;;;61.42;56.03;;;;;;;8.82;100.00;101447.88;5033397;28;20037;-88
2021/06/03 00:40:36;;;;;;;54.00;48.65;;;;;;;8.94;100.00;101453.59;5034024;28;20072;-88
2021/06/03 00:43:03;;;;;;;54.50;49.80;;;;;;;8.95;100.00;101444.66;5032245;28;20560;-88
2021/06/03 00:45:32;;;;;;;47.97;43.70;;;;;;;8.91;100.00;101457.44;5026186;28;20049;-89
2021/06/03 00:47:59;;;;;;;54.92;49.45;;;;;;;9.05;100.00;101452.38;5034628;28;20061;-88
2021/06/03 00:50:31;;;;;;;50.00;45.78;;;;;;;9.08;100.00;101457.31;5035917;28;20041;-89
2021/06/03 00:52:58;;;;;;;52.72;48.08;;;;;;;9.11;100.00;101457.78;5032377;28;20042;-88
2021/06/03 00:55:25;;;;;;;49.92;46.13;;;;;;;8.99;100.00;101447.78;5023698;28;20049;-89
2021/06/03 00:57:52;;;;;;;54.30;49.95;;;;;;;9.05;100.00;101455.03;5027084;28;20056;-88
2021/06/03 01:00:19;;;;;;;53.97;50.00;;;;;;;9.03;100.00;101452.53;5034967;28;20100;-88
2021/06/03 01:02:46;;;;;;;44.25;40.75;;;;;;;9.01;100.00;101451.06;5031241;28;20049;-88
2021/06/03 01:05:18;;;;;;;45.45;41.85;;;;;;;8.98;100.00;101454.88;5026261;28;20050;-89
2021/06/03 01:07:44;;;;;;;44.75;41.20;;;;;;;8.93;100.00;101451.97;5016661;28;20048;-89
2021/06/03 01:10:15;;;;;;;49.97;43.60;;;;;;;8.99;100.00;101447.78;5023935;28;20442;-88
2021/06/03 01:12:51;;;;;;;42.70;39.20;;;;;;;8.97;100.00;101455.09;5025456;28;20088;-89
2021/06/03 01:15:18;;;;;;;41.92;38.20;;;;;;;8.98;100.00;101448.78;5032782;28;20123;-88
2021/06/03 01:17:46;;;;;;;41.67;38.28;;;;;;;8.84;100.00;101445.09;5027915;28;20045;-89
2021/06/03 01:20:14;;;;;;;41.83;38.33;;;;;;;9.08;100.00;101446.72;5027323;28;20096;-89
2021/06/03 01:22:49;;;;;;;42.28;38.78;;;;;;;9.14;100.00;101452.13;5018763;28;20419;-89
2021/06/03 01:25:17;;;;;;;41.85;38.20;;;;;;;9.09;100.00;101441.22;5028871;28;20049;-88
2021/06/03 01:27:44;;;;;;;41.25;37.65;;;;;;;9.02;100.00;101442.94;5024814;28;20049;-88
2021/06/03 01:30:16;;;;;;;44.40;40.53;;;;;;;9.07;100.00;101439.75;5019455;28;20427;-88
2021/06/03 01:32:45;;;;;;;45.03;41.30;;;;;;;8.99;100.00;101443.31;5034138;28;20041;-88
2021/06/03 01:35:21;;;;;;;41.83;38.47;;;;;;;9.05;100.00;101442.59;5026642;28;20414;-88
2021/06/03 01:37:49;;;;;;;41.75;38.05;;;;;;;8.94;100.00;101448.31;5032621;28;20050;-89
2021/06/03 01:40:18;;;;;;;40.97;37.47;;;;;;;9.00;100.00;101439.66;5028758;28;20050;-89
2021/06/03 01:42:47;;;;;;;39.20;35.90;;;;;;;9.02;100.00;101442.94;5033403;28;20477;-88
2021/06/03 01:45:16;;;;;;;40.90;37.00;;;;;;;9.03;100.00;101439.28;5033489;28;20049;-87
2021/06/03 01:47:43;;;;;;;39.55;36.30;;;;;;;8.96;100.00;101433.06;5032228;28;20045;-88
2021/06/03 01:50:11;;;;;;;39.42;36.22;;;;;;;8.78;100.00;101438.66;5033818;28;20054;-88
2021/06/03 01:52:38;;;;;;;42.65;39.10;;;;;;;8.98;100.00;101436.34;5033418;28;20052;-89
2021/06/03 01:55:08;;;;;;;44.17;40.25;;;;;;;8.88;100.00;101435.78;5032551;28;20052;-88
2021/06/03 01:57:37;;;;;;;39.33;36.20;;;;;;;8.95;100.00;101449.94;5027144;28;20519;-87
2021/06/03 02:02:47;;;;;;;42.50;38.92;;;;;;;8.99;100.00;101447.78;4300597;26;20049;-79
2021/06/03 02:05:15;;;;;;;41.80;38.25;;;;;;;8.98;100.00;101452.25;5052299;28;20485;-78
2021/06/03 02:07:41;;;;;;;38.10;34.95;;;;;;;9.06;100.00;101452.19;5052257;28;20090;-78
2021/06/03 02:10:10;;;;;;;42.20;38.63;;;;;;;8.91;100.00;101444.19;5052234;28;20052;-78
2021/06/03 02:12:44;;;;;;;45.22;41.40;;;;;;;8.89;100.00;101445.34;5051875;28;20468;-79
2021/06/03 02:15:11;;;;;;;59.63;55.03;;;;;;;9.07;100.00;101455.66;5050802;28;20470;-79
2021/06/03 02:17:42;;;;;;;50.20;45.90;;;;;;;9.15;100.00;101456.41;5051566;28;20061;-79
2021/06/03 02:20:13;;;;;;;43.03;39.38;;;;;;;9.27;100.00;101466.59;5052066;28;20465;-78
2021/06/03 02:22:42;;;;;;;42.58;39.00;;;;;;;9.24;100.00;101459.00;5051836;28;20049;-78
2021/06/03 02:25:10;;;;;;;46.65;42.85;;;;;;;9.17;100.00;101459.72;5047643;28;20052;-79
2021/06/03 02:27:39;;;;;;;42.85;38.97;;;;;;;9.29;100.00;101468.06;5051626;28;20091;-78
2021/06/03 02:30:07;;;;;;;42.55;39.15;;;;;;;9.18;100.00;101466.66;5049128;28;20084;-79
2021/06/03 02:32:34;;;;;;;42.85;39.28;;;;;;;9.34;100.00;101464.88;5049511;28;20044;-79
2021/06/03 02:35:02;;;;;;;40.28;37.08;;;;;;;9.37;100.00;101457.38;5047293;28;20048;-78
2021/06/03 02:37:28;;;;;;;42.75;39.35;;;;;;;9.34;100.00;101465.69;5048433;28;20404;-79
2021/06/03 02:39:59;;;;;;;42.10;38.25;;;;;;;9.38;100.00;101468.84;5061703;28;20045;-79
2021/06/03 02:42:26;;;;;;;42.20;38.70;;;;;;;9.04;100.00;101464.78;5064762;28;20362;-78
2021/06/03 02:44:54;;;;;;;47.80;43.90;;;;;;;9.20;100.00;101477.09;5067517;28;20056;-80
2021/06/03 02:47:20;;;;;;;42.17;38.85;;;;;;;9.27;100.00;101475.38;5071261;28;20056;-77
2021/06/03 02:49:49;;;;;;;41.92;38.72;;;;;;;9.43;100.00;101470.94;5071169;28;20377;-79
2021/06/03 02:52:15;;;;;;;48.00;44.00;;;;;;;9.47;100.00;101474.84;5067537;28;20155;-79
2021/06/03 02:54:43;;;;;;;43.50;39.90;;;;;;;9.51;100.00;101481.47;5071524;28;20396;-80
2021/06/03 02:57:10;;;;;;;44.70;41.00;;;;;;;9.55;100.00;101480.09;5068284;28;20048;-80
2021/06/03 02:59:37;;;;;;;45.55;41.85;;;;;;;9.54;100.00;101479.28;5071041;28;20044;-83
2021/06/03 03:02:05;;;;;;;48.42;44.53;;;;;;;9.58;100.00;101475.25;5066975;28;20542;-78
2021/06/03 03:04:31;;;;;;;49.20;45.38;;;;;;;9.39;100.00;101481.91;5071169;28;20127;-80
2021/06/03 03:06:57;;;;;;;50.63;46.75;;;;;;;9.39;100.00;101476.59;5061046;28;20459;-79
2021/06/03 03:09:24;;;;;;;42.83;39.63;;;;;;;9.47;100.00;101481.00;5069450;28;20526;-79
2021/06/03 03:11:50;;;;;;;49.55;45.58;;;;;;;9.44;100.00;101483.16;5071548;28;20048;-78
2021/06/03 03:14:16;;;;;;;45.33;41.80;;;;;;;9.48;100.00;101482.66;5071323;28;20048;-79
2021/06/03 03:16:43;;;;;;;43.83;40.60;;;;;;;9.70;100.00;101482.78;5070941;28;20055;-81
2021/06/03 03:19:10;;;;;;;45.20;42.00;;;;;;;9.63;100.00;101487.97;5071149;28;20055;-78
2021/06/03 03:21:37;;;;;;;42.95;39.63;;;;;;;9.77;100.00;101483.69;5060786;28;20083;-78
2021/06/03 03:24:04;;;;;;;41.05;37.97;;;;;;;9.81;100.00;101490.28;5066651;28;20053;-79
2021/06/03 03:26:30;;;;;;;40.45;37.25;;;;;;;9.93;100.00;101491.47;5070062;28;20056;-78
2021/06/03 03:28:57;;;;;;;45.67;42.20;;;;;;;9.76;100.00;101488.16;5071088;28;20056;-79
2021/06/03 03:31:25;;;;;;;43.03;39.53;;;;;;;10.00;100.00;101491.56;5070324;28;20044;-79
2021/06/03 03:33:51;;;;;;;41.97;38.47;;;;;;;10.02;100.00;101494.88;5071170;28;20052;-78
2021/06/03 03:36:19;;;;;;;46.17;42.78;;;;;;;10.05;100.00;101508.59;5071043;28;20048;-78
2021/06/03 03:38:45;;;;;;;41.30;37.63;;;;;;;10.14;100.00;101505.84;5068076;23;20049;-88
2021/06/03 03:41:13;;;;;;;42.05;38.75;;;;;;;10.15;100.00;101512.81;5003829;28;20466;-88
2021/06/03 03:43:39;;;;;;;42.50;38.75;;;;;;;9.93;100.00;101518.03;4997196;28;20050;-88
2021/06/03 03:46:08;;;;;;;45.63;42.17;;;;;;;9.99;100.00;101530.56;4999302;28;20514;-89
2021/06/03 03:48:35;;;;;;;48.80;44.88;;;;;;;9.93;100.00;101519.84;5001056;28;20054;-89
2021/06/03 03:51:02;;;;;;;46.80;43.30;;;;;;;9.78;100.00;101523.31;5005014;28;20518;-88
2021/06/03 03:53:34;;;;;;;43.20;40.00;;;;;;;10.25;100.00;101523.97;5000990;28;20104;-88
2021/06/03 03:56:01;;;;;;;45.35;41.85;;;;;;;10.17;100.00;101524.91;4997169;28;20053;-88
2021/06/03 03:58:28;;;;;;;46.63;43.03;;;;;;;10.18;100.00;101531.84;5007001;28;20502;-88
2021/06/03 04:00:59;;;;;;;46.25;42.35;;;;;;;10.33;100.00;101534.53;4996298;28;20426;-88
2021/06/03 04:03:26;;;;;;;44.88;41.33;;;;;;;10.46;100.00;101531.22;5009928;28;20050;-88
2021/06/03 04:05:53;;;;;;;44.88;41.30;;;;;;;10.39;100.00;101531.13;5002634;28;20049;-88
2021/06/03 04:08:22;;;;;;;53.22;49.42;;;;;;;10.65;100.00;101535.13;5009700;28;20038;-88
2021/06/03 04:11:05;;;;;;;51.17;46.17;;;;;;;10.70;100.00;101527.41;5010282;28;20042;-88
2021/06/03 04:13:32;;;;;;;45.08;41.47;;;;;;;10.75;100.00;101525.03;5008686;28;20573;-88
2021/06/03 04:15:58;;;;;;;42.92;39.72;;;;;;;10.70;100.00;101524.75;5005080;28;20054;-88
2021/06/03 04:18:24;;;;;;;45.75;42.30;;;;;;;10.85;100.00;101522.06;5000578;28;20049;-88
2021/06/03 04:20:51;;;;;;;43.60;40.30;;;;;;;10.80;100.00;101513.81;4999517;28;20042;-88
2021/06/03 04:23:17;;;;;;;46.58;43.13;;;;;;;10.88;100.00;101519.84;4997951;28;20450;-88
2021/06/03 04:25:43;;;;;;;46.00;42.30;;;;;;;10.81;100.00;101518.97;5005002;28;20116;-89
2021/06/03 04:28:11;;;;;;;41.85;38.75;;;;;;;10.93;100.00;101521.97;5001776;28;20046;-89
2021/06/03 04:30:40;;;;;;;41.80;38.70;;;;;;;11.03;100.00;101527.78;5002315;28;20062;-88
2021/06/03 04:33:07;;;;;;;43.80;40.60;;;;;;;11.12;100.00;101531.97;5002137;28;20052;-89
2021/06/03 04:35:34;;;;;;;43.00;39.80;;;;;;;11.18;100.00;101530.38;4995634;28;20050;-88
2021/06/03 04:38:00;;;;;;;43.42;40.08;;;;;;;11.37;100.00;101523.59;5004912;28;20046;-88
2021/06/03 04:40:26;;;;;;;43.63;40.30;;;;;;;11.25;100.00;101536.56;4998275;28;20055;-88
2021/06/03 04:42:53;;;;;;;43.58;40.38;;;;;;;11.19;100.00;101534.66;5003528;28;20121;-88
2021/06/03 04:45:22;;;;;;;46.00;42.70;;;;;;;11.23;100.00;101534.13;5007329;28;20129;-89
2021/06/03 04:47:49;;;;;;;44.38;40.53;;;;;;;11.44;100.00;101532.47;5004033;28;20050;-89
2021/06/03 04:50:17;;;;;;;42.40;39.20;;;;;;;11.50;100.00;101537.03;5010553;28;20133;-88
2021/06/03 04:52:44;;;;;;;46.97;43.45;;;;;;;11.53;100.00;101541.97;5002689;28;20053;-90
2021/06/03 04:55:13;;;;;;;51.53;47.72;;;;;;;11.82;100.00;101540.13;5003853;28;20061;-88
2021/06/03 04:57:40;;;;;;;55.25;51.55;;;;;;;12.16;100.00;101544.66;5003598;28;20052;-88
2021/06/03 05:00:09;;;;;;;59.25;54.80;;;;;;;12.27;100.00;101538.78;5005901;28;20053;-89
2021/06/03 05:02:38;;;;;;;55.75;51.75;;;;;;;12.09;100.00;101541.97;5043273;23;20050;-79
2021/06/03 05:05:05;;;;;;;49.83;46.22;;;;;;;12.27;100.00;101546.78;5004409;28;20046;-78
2021/06/03 05:07:31;;;;;;;49.78;46.17;;;;;;;12.44;100.00;101549.13;4996481;28;20058;-80
2021/06/03 05:09:58;;;;;;;45.33;41.60;;;;;;;12.63;100.00;101555.56;5004037;28;20120;-79
2021/06/03 05:12:24;;;;;;;44.05;40.95;;;;;;;12.63;100.00;101555.56;5007553;28;20042;-82
2021/06/03 05:14:50;;;;;;;45.95;42.55;;;;;;;12.78;100.00;101554.38;5010858;28;20140;-79
2021/06/03 05:17:16;;;;;;;45.25;41.92;;;;;;;12.93;100.00;101556.09;5010845;28;20454;-83
2021/06/03 05:19:44;;;;;;;42.97;39.70;;;;;;;12.81;100.00;101559.31;5004589;28;20046;-77
2021/06/03 05:22:10;;;;;;;49.80;46.20;;;;;;;13.00;100.00;101565.72;5002217;28;20046;-79
2021/06/03 05:24:37;;;;;;;42.13;38.85;;;;;;;13.09;100.00;101561.03;5000833;28;20042;-80
2021/06/03 05:27:04;;;;;;;45.67;42.13;;;;;;;13.13;100.00;101564.13;5002468;28;20395;-79
2021/06/03 05:29:31;;;;;;;46.95;42.88;;;;;;;13.32;100.00;101562.56;5002920;28;20057;-78
2021/06/03 05:31:57;;;;;;;49.25;45.13;;;;;;;13.49;100.00;101563.78;5006838;28;20457;-79
2021/06/03 05:34:24;;;;;;;43.63;40.20;;;;;;;13.45;100.00;101566.03;5005363;28;20050;-77
2021/06/03 05:36:52;;;;;;;45.10;41.38;;;;;;;13.57;100.00;101558.25;5014135;28;20780;-79
2021/06/03 05:39:18;;;;;;;47.45;43.45;;;;;;;13.58;100.00;101559.06;5016059;28;20056;-77
2021/06/03 05:41:45;;;;;;;43.83;40.42;;;;;;;13.69;100.00;101563.78;5024627;28;20053;-78
2021/06/03 05:44:13;;;;;;;42.42;39.15;;;;;;;13.83;100.00;101569.94;5023769;28;20053;-80
2021/06/03 05:46:41;;;;;;;42.10;38.97;;;;;;;13.89;100.00;101577.16;5022079;28;20050;-80
2021/06/03 05:49:09;;;;;;;41.63;38.78;;;;;;;13.97;100.00;101574.25;5019603;28;20053;-80
2021/06/03 05:51:36;;;;;;;43.20;40.20;;;;;;;14.12;100.00;101571.34;5017349;28;20046;-80
2021/06/03 05:54:04;;;;;;;47.22;43.60;;;;;;;14.36;100.00;101573.34;5023250;28;20123;-83
2021/06/03 05:56:30;;;;;;;45.58;42.17;;;;;;;14.54;100.00;101575.38;5024230;28;20057;-79
2021/06/03 05:58:57;;;;;;;44.10;40.90;;;;;;;14.45;100.00;101576.59;5025966;28;20053;-78
2021/06/03 06:01:25;;;;;;;44.28;41.17;;;;;;;14.48;100.00;101586.06;5031943;28;20510;-81
2021/06/03 06:03:57;;;;;;;44.88;41.58;;;;;;;14.52;100.00;101588.13;5042365;28;20068;-78
2021/06/03 06:06:24;;;;;;;50.60;46.50;;;;;;;14.53;100.00;101584.44;5043343;28;20049;-77
2021/06/03 06:08:51;;;;;;;47.05;43.42;;;;;;;15.01;100.00;101585.88;5038222;28;20436;-80
2021/06/03 06:11:19;;;;;;;45.25;41.75;;;;;;;14.93;100.00;101589.59;5043295;28;20037;-79
2021/06/03 06:13:46;;;;;;;40.78;37.60;;;;;;;14.53;100.00;101587.09;5046277;28;20045;-78
2021/06/03 06:16:13;;;;;;;45.65;42.60;;;;;;;14.88;100.00;101592.09;5044227;28;20390;-77
2021/06/03 06:18:40;;;;;;;50.72;46.83;;;;;;;14.76;100.00;101601.81;5040578;28;20044;-77
2021/06/03 06:21:08;;;;;;;47.28;43.63;;;;;;;14.89;100.00;101599.91;5041665;28;20124;-79
2021/06/03 06:23:35;;;;;;;51.40;47.33;;;;;;;15.36;100.00;101605.00;5046686;28;20069;-78
2021/06/03 06:26:02;;;;;;;45.10;41.50;;;;;;;14.93;100.00;101599.50;5043053;28;20040;-77
2021/06/03 06:28:30;;;;;;;50.78;46.67;;;;;;;15.09;100.00;101601.66;5039758;28;20041;-78
2021/06/03 06:30:56;;;;;;;48.03;44.40;;;;;;;15.25;100.00;101608.34;5046398;28;20056;-80
2021/06/03 06:33:23;;;;;;;51.90;48.10;;;;;;;15.32;100.00;101606.47;5040319;28;20107;-80
2021/06/03 06:35:50;;;;;;;54.65;50.28;;;;;;;15.10;100.00;101611.34;5040798;28;20414;-79
2021/06/03 06:40:53;;;;;;;48.53;45.33;;;;;;;15.71;100.00;101615.31;5047471;23;20050;-78
2021/06/03 06:43:19;;;;;;;47.75;44.08;;;;;;;15.96;100.00;101620.66;5022242;28;20099;-79
2021/06/03 06:45:49;;;;;;;49.17;46.08;;;;;;;15.61;100.00;101620.28;5030996;28;20042;-79
2021/06/03 06:48:16;;;;;;;45.08;41.90;;;;;;;16.01;100.00;101613.59;5030285;28;20045;-78
2021/06/03 06:50:44;;;;;;;41.80;39.08;;;;;;;15.84;100.00;101617.88;5033603;28;20068;-78
2021/06/03 06:53:11;;;;;;;40.45;37.63;;;;;;;16.19;100.00;101617.34;5031750;28;20049;-77
2021/06/03 06:55:38;;;;;;;39.00;36.40;;;;;;;15.90;100.00;101616.16;5036106;28;20378;-78
2021/06/03 06:58:05;;;;;;;35.00;32.75;;;;;;;15.41;100.00;101623.91;5033408;28;20042;-77
2021/06/03 07:00:40;;;;;;;39.78;37.10;;;;;;;15.57;100.00;101618.03;5035965;28;20127;-78
2021/06/03 07:03:10;;;;;;;37.88;35.47;;;;;;;15.43;100.00;101626.38;5035030;28;20049;-77
2021/06/03 07:05:37;;;;;;;40.47;38.05;;;;;;;15.56;100.00;101626.28;5032714;28;20386;-77
2021/06/03 07:08:04;;;;;;;38.10;35.70;;;;;;;15.82;100.00;101625.28;5033305;28;20497;-77
2021/06/03 07:10:30;;;;;;;44.50;41.40;;;;;;;16.11;100.00;101631.84;5032803;28;20049;-78
2021/06/03 07:12:57;;;;;;;39.55;37.22;;;;;;;16.16;100.00;101633.88;5025222;28;20060;-78
2021/06/03 07:15:23;;;;;;;36.88;34.67;;;;;;;16.26;100.00;101632.31;5030124;28;20049;-77
2021/06/03 07:17:50;;;;;;;40.22;37.95;;;;;;;16.19;100.00;101636.94;5031885;28;20394;-78
2021/06/03 07:20:19;;;;;;;41.80;39.50;;;;;;;16.17;100.00;101633.66;5029238;28;20056;-79
2021/06/03 07:22:47;;;;;;;38.95;36.35;;;;;;;16.30;100.00;101634.56;5023169;28;20410;-81
2021/06/03 07:25:15;;;;;;;39.65;37.00;;;;;;;16.55;100.00;101640.69;5032744;28;20065;-78
2021/06/03 07:27:44;;;;;;;39.95;37.92;;;;;;;16.47;100.00;101631.06;5033249;28;20057;-78
2021/06/03 07:30:13;;;;;;;37.55;35.65;;;;;;;16.42;100.00;101628.22;5033124;28;20612;-78
2021/06/03 07:32:39;;;;;;;37.03;34.85;;;;;;;16.28;100.00;101632.13;5033180;28;20060;-77
2021/06/03 07:35:09;;;;;;;33.88;32.08;;;;;;;16.07;100.00;101636.03;5030673;28;20425;-79
2021/06/03 07:37:37;;;;;;;35.33;33.63;;;;;;;16.24;100.00;101629.03;5020163;28;20501;-78
2021/06/03 07:40:05;;;;;;;35.22;33.42;;;;;;;16.01;100.00;101644.94;5037147;28;20501;-77
2021/06/03 07:42:31;;;;;;;36.75;34.85;;;;;;;15.79;100.00;101644.47;5047433;28;20057;-78
2021/06/03 07:44:58;;;;;;;37.28;35.13;;;;;;;16.36;100.00;101645.22;5049592;28;20044;-78
2021/06/03 07:47:24;;;;;;;38.80;36.40;;;;;;;16.42;100.00;101646.19;5045821;28;20048;-77
2021/06/03 07:49:50;;;;;;;35.40;33.22;;;;;;;16.54;100.00;101647.09;5046898;28;20079;-77
2021/06/03 07:52:17;;;;;;;32.38;30.58;;;;;;;16.08;100.00;101650.22;5049284;28;20056;-78
2021/06/03 07:54:44;;;;;;;33.20;31.40;;;;;;;16.38;100.00;101650.38;5040279;28;20127;-77
2021/06/03 07:57:11;;;;;;;30.80;29.13;;;;;;;16.71;100.00;101655.38;5043530;28;20052;-77
2021/06/03 07:59:37;;;;;;;33.80;31.80;;;;;;;16.39;100.00;101652.81;5039016;28;20255;-77
2021/06/03 08:02:04;;;;;;;33.53;31.73;;;;;;;16.14;100.00;101662.75;5044154;28;20056;-78
2021/06/03 08:04:30;;;;;;;32.88;31.08;;;;;;;16.12;100.00;101657.59;5049046;28;20072;-77
2021/06/03 08:06:56;;;;;;;32.80;30.83;;;;;;;15.97;100.00;101662.47;5042311;28;20060;-78
2021/06/03 08:09:22;;;;;;;35.15;33.17;;;;;;;15.80;100.00;101659.53;5049022;28;20057;-78
2021/06/03 08:11:50;;;;;;;34.83;32.90;;;;;;;16.19;100.00;101665.59;5043817;28;20041;-78
2021/06/03 08:14:16;;;;;;;36.90;34.72;;;;;;;16.61;100.00;101663.09;5040956;28;20064;-77
2021/06/03 08:16:43;;;;;;;33.22;31.30;;;;;;;16.46;100.00;101675.03;5053169;28;20470;-79
2021/06/03 08:19:09;;;;;;;32.28;30.42;;;;;;;16.08;100.00;101679.72;5045409;28;20052;-78
2021/06/03 08:21:35;;;;;;;34.38;32.45;;;;;;;16.28;100.00;101677.69;5050994;28;20107;-78
2021/06/03 08:24:02;;;;;;;34.08;32.08;;;;;;;16.45;100.00;101677.91;5052651;28;20040;-78
2021/06/03 08:26:28;;;;;;;37.13;35.05;;;;;;;16.69;100.00;101676.22;5048079;28;20049;-78
2021/06/03 08:28:57;;;;;;;32.53;30.83;;;;;;;16.06;100.00;101681.78;5051867;28;20041;-79
2021/06/03 08:31:23;;;;;;;36.90;34.72;;;;;;;16.09;100.00;101684.00;5047252;28;20055;-77
2021/06/03 08:33:49;;;;;;;39.47;37.28;;;;;;;16.53;100.00;101687.53;5044704;28;20041;-77
2021/06/03 08:36:16;;;;;;;36.85;34.80;;;;;;;16.35;100.00;101688.34;5049724;28;20048;-78
2021/06/03 08:38:42;;;;;;;38.17;36.17;;;;;;;16.30;100.00;101682.81;5047137;28;20056;-77
2021/06/03 08:41:09;;;;;;;34.92;33.03;;;;;;;16.16;100.00;101685.63;5047521;28;20056;-79
2021/06/03 08:43:35;;;;;;;36.97;34.78;;;;;;;16.08;100.00;101688.56;5057463;28;20060;-78
2021/06/03 08:46:04;;;;;;;34.85;33.05;;;;;;;16.22;100.00;101687.41;5050207;28;20045;-81
2021/06/03 08:48:31;;;;;;;32.00;30.20;;;;;;;16.15;100.00;101691.19;5053653;28;20110;-78
2021/06/03 08:51:00;;;;;;;33.60;31.50;;;;;;;16.07;100.00;101694.13;5052893;28;20122;-78
2021/06/03 08:53:27;;;;;;;33.40;31.35;;;;;;;16.19;100.00;101693.22;5048632;28;20124;-79
2021/06/03 08:58:38;;;;;;;31.42;29.73;;;;;;;16.41;100.00;101698.19;5046985;28;20509;-81
2021/06/03 09:01:07;;;;;;;30.95;29.25;;;;;;;16.35;100.00;101699.06;5052700;28;20156;-78
2021/06/03 09:03:37;;;;;;;32.25;30.25;;;;;;;16.62;100.00;101695.06;5040974;28;20473;-78
2021/06/03 09:06:05;;;;;;;37.05;34.65;;;;;;;16.48;100.00;101698.94;5055805;28;20068;-78
2021/06/03 09:08:32;;;;;;;35.65;33.33;;;;;;;16.47;100.00;101703.47;5059544;28;20405;-79
2021/06/03 09:11:01;;;;;;;34.65;32.15;;;;;;;16.16;100.00;101708.91;5050461;28;20126;-77
2021/06/03 09:13:30;;;;;;;35.08;32.97;;;;;;;16.32;100.00;101708.34;5048979;28;20424;-78
2021/06/03 09:15:58;;;;;;;31.48;29.77;;;;;;;16.18;100.00;101706.81;5046393;28;20071;-78
2021/06/03 09:18:32;;;;;;;33.90;32.00;;;;;;;15.99;100.00;101709.44;5053727;28;20049;-79
2021/06/03 09:21:08;;;;;;;39.95;37.88;;;;;;;16.13;100.00;101712.84;5043716;28;20470;-80
2021/06/03 09:23:36;;;;;;;41.10;38.60;;;;;;;16.37;100.00;101713.88;5047036;28;20056;-77
2021/06/03 09:26:06;;;;;;;40.90;38.50;;;;;;;16.89;100.00;101705.56;5052607;28;20507;-78
2021/06/03 09:28:34;;;;;;;39.03;35.88;;;;;;;17.11;100.00;101713.97;5051927;28;20049;-79
2021/06/03 09:31:04;;;;;;;35.45;33.05;;;;;;;16.92;100.00;101718.53;5043737;28;20041;-77
2021/06/03 09:34:00;;;;;;;37.13;34.72;;;;;;;17.09;100.00;101716.03;5052618;28;20060;-78
2021/06/03 09:36:39;;;;;;;35.13;33.03;;;;;;;16.85;100.00;101723.97;5052276;28;20040;-78
2021/06/03 09:39:24;;;;;;;33.60;31.42;;;;;;;16.82;100.00;101724.38;5059012;23;20059;-87
2021/06/03 09:41:54;;;;;;;34.72;32.67;;;;;;;16.76;100.00;101727.97;5029807;28;20050;-88
2021/06/03 09:44:25;;;;;;;33.40;31.27;;;;;;;16.69;100.00;101729.88;5031527;28;20057;-89
2021/06/03 09:46:54;;;;;;;32.30;30.13;;;;;;;16.55;100.00;101723.84;5030323;28;20049;-89
2021/06/03 09:49:25;;;;;;;33.85;31.95;;;;;;;16.65;100.00;101736.72;5029251;28;20111;-89
2021/06/03 09:51:53;;;;;;;36.42;34.33;;;;;;;16.55;100.00;101729.19;5030474;28;20068;-89
2021/06/03 09:54:21;;;;;;;31.17;29.38;;;;;;;16.39;100.00;101735.09;5031924;28;20061;-89
2021/06/03 09:56:51;;;;;;;35.70;33.90;;;;;;;16.01;100.00;101739.53;5031617;28;20052;-88
2021/06/03 09:59:23;;;;;;;34.28;32.47;;;;;;;15.95;100.00;101736.91;5030086;28;20056;-88
2021/06/03 10:01:52;;;;;;;34.38;32.58;;;;;;;16.13;100.00;101736.16;5029997;28;20045;-89
2021/06/03 10:04:23;;;;;;;32.60;30.85;;;;;;;15.71;100.00;101742.00;5026858;28;20094;-89
2021/06/03 10:07:22;;;;;;;35.28;33.38;;;;;;;15.11;100.00;101725.34;5023551;28;20049;-89
2021/06/03 10:09:57;;;;;;;34.75;32.85;;;;;;;15.13;100.00;101728.66;5029813;28;20116;-89
2021/06/03 10:12:32;;;;;;;35.58;33.47;;;;;;;15.02;100.00;101724.75;5024986;28;20103;-89
2021/06/03 10:15:00;;;;;;;35.55;33.38;;;;;;;15.05;100.00;101724.34;5026279;28;20049;-89
2021/06/03 10:17:28;;;;;;;36.65;34.45;;;;;;;15.05;100.00;101735.03;5024196;28;20041;-89
2021/06/03 10:19:57;;;;;;;37.83;35.65;;;;;;;15.08;100.00;101734.63;5025328;28;20046;-88
2021/06/03 10:22:28;;;;;;;35.42;33.22;;;;;;;15.04;100.00;101735.28;5018168;28;20062;-89
2021/06/03 10:25:00;;;;;;;33.83;31.88;;;;;;;15.21;100.00;101736.41;5015247;28;20049;-89
2021/06/03 10:27:28;;;;;;;;;;;;;;;15.37;100.00;101740.50;5030829;28;20103;-89
2021/06/03 10:29:54;;;;;;;31.75;29.95;;;;;;;15.03;100.00;101737.09;5021186;28;19921;-90
2021/06/03 10:32:23;;;;;;;35.13;33.03;;;;;;;15.09;100.00;101738.13;5026429;28;20060;-89
2021/06/03 10:34:51;;;;;;;35.08;33.08;;;;;;;15.11;100.00;101733.38;5027277;28;20041;-88
2021/06/03 10:37:19;;;;;;;34.10;32.00;;;;;;;15.21;100.00;101725.72;5032126;28;20052;-90
2021/06/03 10:39:47;;;;;;;35.22;33.03;;;;;;;15.12;100.00;101716.28;5031174;28;20053;-88
2021/06/03 10:42:16;;;;;;;34.60;32.60;;;;;;;15.09;100.00;101719.38;5029428;28;20053;-90
2021/06/03 10:44:44;;;;;;;34.03;31.98;;;;;;;15.29;100.00;101717.47;5025953;28;20060;-89
2021/06/03 10:47:12;;;;;;;37.22;34.72;;;;;;;15.01;100.00;101720.47;5026968;28;20168;-89
2021/06/03 10:49:38;;;;;;;35.78;33.78;;;;;;;15.10;100.00;101721.06;5030819;28;20054;-89
2021/06/03 10:52:07;;;;;;;34.42;32.45;;;;;;;15.18;100.00;101710.09;5033121;28;20400;-89
2021/06/03 10:54:50;;;;;;;34.45;32.55;;;;;;;15.31;100.00;101717.22;5015526;28;20046;-89
2021/06/03 10:57:18;;;;;;;34.78;32.72;;;;;;;15.30;100.00;101720.94;5021643;28;20534;-89
2021/06/03 10:59:45;;;;;;;32.17;30.38;;;;;;;15.10;100.00;101711.16;5024453;28;20037;-90
2021/06/03 11:02:15;;;;;;;32.90;30.90;;;;;;;14.98;100.00;101714.72;5029441;28;20103;-89
2021/06/03 11:04:44;;;;;;;32.88;30.95;;;;;;;14.93;100.00;101718.00;5029736;28;20054;-90
2021/06/03 11:07:16;;;;;;;33.08;31.10;;;;;;;15.26;100.00;101720.56;5031595;28;20129;-88
2021/06/03 11:09:45;;;;;;;35.00;33.00;;;;;;;14.97;100.00;101713.88;5029417;28;20494;-89
2021/06/03 11:12:16;;;;;;;36.05;33.55;;;;;;;15.33;100.00;101713.31;5028681;28;20433;-89
2021/06/03 11:15:04;;;;;;;34.22;32.42;;;;;;;15.23;100.00;101715.63;5028958;28;20045;-90
2021/06/03 11:18:06;;;;;;;31.42;29.73;;;;;;;15.25;100.00;101713.56;5030060;28;20052;-90